createdAt,value
2022-10-19T00:00:09.555Z,100896.00
2022-10-19T00:02:57.426Z,100895.09
2022-10-19T00:05:45.318Z,100891.84
2022-10-19T00:08:34.637Z,100881.88
2022-10-19T00:11:23.667Z,100887.03
2022-10-19T00:14:14.975Z,100880.69
2022-10-19T00:17:02.979Z,100889.03
2022-10-19T00:19:50.959Z,100887.03
2022-10-19T00:22:39.265Z,100885.16
2022-10-19T00:25:28.625Z,100881.25
2022-10-19T00:28:16.545Z,100884.53
2022-10-19T00:31:05.896Z,100887.28
2022-10-19T00:33:54.728Z,100884.72
2022-10-19T00:36:42.625Z,100882.81
2022-10-19T00:39:30.695Z,100878.00
2022-10-19T00:42:19.928Z,100880.59
2022-10-19T00:45:14.525Z,100868.72
2022-10-19T00:48:02.514Z,100868.75
2022-10-19T00:50:51.980Z,100872.72
2022-10-19T00:53:40.325Z,100875.44
2022-10-19T00:56:28.274Z,100876.59
2022-10-19T00:59:22.029Z,100875.41
2022-10-19T01:02:10.032Z,100876.47
2022-10-19T01:04:59.286Z,100877.34
2022-10-19T01:07:47.222Z,100864.25
2022-10-19T01:10:46.651Z,100875.41
2022-10-19T01:13:44.953Z,100863.88
2022-10-19T01:16:41.713Z,100852.81
2022-10-19T01:19:51.962Z,100855.34
2022-10-19T01:22:56.624Z,100854.50
2022-10-19T01:25:55.470Z,100857.31
2022-10-19T01:28:56.333Z,100859.34
2022-10-19T01:31:50.497Z,100851.06
2022-10-19T01:34:47.183Z,100849.88
2022-10-19T01:37:41.005Z,100842.38
2022-10-19T01:40:34.438Z,100843.91
2022-10-19T01:43:34.336Z,100843.63
2022-10-19T01:46:28.253Z,100831.69
2022-10-19T01:49:21.674Z,100845.00
2022-10-19T01:52:14.238Z,100836.28
2022-10-19T01:55:04.414Z,100833.88
2022-10-19T01:57:59.146Z,100825.91
2022-10-19T02:00:50.725Z,100819.16
2022-10-19T02:03:40.097Z,100819.50
2022-10-19T02:06:29.500Z,100811.97
2022-10-19T02:09:18.534Z,100809.84
2022-10-19T02:12:10.357Z,100812.50
2022-10-19T02:15:02.554Z,100805.94
2022-10-19T02:17:53.445Z,100806.75
2022-10-19T02:20:41.396Z,100810.25
2022-10-19T02:23:30.910Z,100813.34
2022-10-19T02:26:19.461Z,100805.41
2022-10-19T02:29:07.862Z,100798.19
2022-10-19T02:31:55.857Z,100802.59
2022-10-19T02:34:43.822Z,100805.66
2022-10-19T02:37:31.744Z,100796.06
2022-10-19T02:40:22.010Z,100802.44
2022-10-19T02:43:13.898Z,100802.19
2022-10-19T02:46:06.569Z,100812.03
2022-10-19T02:48:56.080Z,100796.13
2022-10-19T02:51:59.485Z,100793.78
2022-10-19T02:54:47.466Z,100802.47
2022-10-19T02:57:37.403Z,100793.03
2022-10-19T03:00:25.464Z,100796.97
2022-10-19T03:03:13.415Z,100804.09
2022-10-19T03:06:01.329Z,100808.50
2022-10-19T03:08:49.263Z,100808.63
2022-10-19T03:11:37.383Z,100815.06
2022-10-19T03:14:26.673Z,100807.63
2022-10-19T03:17:14.736Z,100803.81
2022-10-19T03:20:02.798Z,100798.75
2022-10-19T03:25:44.256Z,100792.97
2022-10-19T03:28:33.182Z,100792.34
2022-10-19T03:31:22.462Z,100798.13
2022-10-19T03:34:10.355Z,100795.53
2022-10-19T03:36:59.215Z,100791.69
2022-10-19T03:39:47.202Z,100797.69
2022-10-19T03:42:35.167Z,100796.50
2022-10-19T03:45:23.099Z,100800.31
2022-10-19T03:48:12.326Z,100802.47
2022-10-19T03:51:00.961Z,100804.81
2022-10-19T03:53:52.655Z,100797.44
2022-10-19T03:56:40.577Z,100791.16
2022-10-19T03:59:28.578Z,100776.13
2022-10-19T04:02:16.528Z,100788.69
2022-10-19T04:05:06.786Z,100785.47
2022-10-19T04:07:54.677Z,100782.22
2022-10-19T04:10:42.588Z,100781.84
2022-10-19T04:13:31.406Z,100786.03
2022-10-19T04:16:20.198Z,100784.56
2022-10-19T04:19:08.202Z,100790.91
2022-10-19T04:21:57.492Z,100786.81
2022-10-19T04:24:45.398Z,100793.53
2022-10-19T04:27:33.634Z,100789.19
2022-10-19T04:30:21.791Z,100791.19
2022-10-19T04:33:09.761Z,100799.47
2022-10-19T04:35:59.432Z,100796.66
2022-10-19T04:38:48.849Z,100800.16
2022-10-19T04:41:38.447Z,100756.44
2022-10-19T04:44:26.405Z,100796.22
2022-10-19T04:47:14.352Z,100797.72
2022-10-19T04:50:02.327Z,100799.41
2022-10-19T04:52:50.230Z,100793.53
2022-10-19T04:55:42.762Z,100800.78
2022-10-19T04:58:30.668Z,100794.72
2022-10-19T05:01:20.863Z,100786.72
2022-10-19T05:04:11.056Z,100787.59
2022-10-19T05:06:59.003Z,100786.50
2022-10-19T05:09:46.879Z,100789.16
2022-10-19T05:12:37.041Z,100775.28
2022-10-19T05:15:24.979Z,100776.94
2022-10-19T05:18:12.888Z,100773.00
2022-10-19T05:21:05.779Z,100745.75
2022-10-19T05:23:54.808Z,100761.47
2022-10-19T05:26:42.711Z,100764.34
2022-10-19T05:29:33.759Z,100760.25
2022-10-19T05:32:21.678Z,100762.47
2022-10-19T05:35:09.959Z,100758.22
2022-10-19T05:37:57.967Z,100764.94
2022-10-19T05:40:50.367Z,100760.13
2022-10-19T05:43:42.922Z,100735.97
2022-10-19T05:46:33.735Z,100765.78
2022-10-19T05:49:23.146Z,100772.38
2022-10-19T05:52:11.061Z,100773.22
2022-10-19T05:54:59.222Z,100771.66
2022-10-19T05:57:47.157Z,100776.75
2022-10-19T06:00:35.100Z,100776.34
2022-10-19T06:03:25.871Z,100770.19
2022-10-19T06:05:54.008Z,100787.94
2022-10-19T06:08:23.509Z,100785.44
2022-10-19T06:10:51.637Z,100783.00
2022-10-19T06:13:20.602Z,100725.69
2022-10-19T06:15:52.148Z,100779.72
2022-10-19T06:18:20.302Z,100782.59
2022-10-19T06:20:49.239Z,100783.34
2022-10-19T06:23:16.846Z,100770.28
2022-10-19T06:25:44.525Z,100764.31
2022-10-19T06:28:12.279Z,100769.34
2022-10-19T06:30:40.742Z,100778.47
2022-10-19T06:33:09.022Z,100779.19
2022-10-19T06:35:38.280Z,100775.22
2022-10-19T06:38:07.270Z,100770.88
2022-10-19T06:40:35.605Z,100772.44
2022-10-19T06:43:03.330Z,100766.88
2022-10-19T06:45:35.526Z,100773.50
2022-10-19T06:48:06.750Z,100779.97
2022-10-19T06:50:35.661Z,100776.84
2022-10-19T06:53:03.323Z,100775.78
2022-10-19T06:55:32.309Z,100788.41
2022-10-19T06:58:01.591Z,100778.34
2022-10-19T07:00:30.241Z,100784.41
2022-10-19T07:02:59.505Z,100776.69
2022-10-19T07:05:27.327Z,100778.78
2022-10-19T07:07:55.009Z,100779.69
2022-10-19T07:10:22.673Z,100781.72
2022-10-19T07:12:51.667Z,100786.63
2022-10-19T07:15:19.313Z,100780.69
2022-10-19T07:17:46.921Z,100775.19
2022-10-19T07:20:14.582Z,100782.03
2022-10-19T07:22:42.213Z,100779.34
2022-10-19T07:25:10.155Z,100784.63
2022-10-19T07:27:40.040Z,100779.50
2022-10-19T07:30:09.937Z,100780.00
2022-10-19T07:32:37.603Z,100790.25
2022-10-19T07:35:06.145Z,100779.28
2022-10-19T07:37:34.036Z,100792.41
2022-10-19T07:40:01.812Z,100796.69
2022-10-19T07:42:30.331Z,100795.94
2022-10-19T07:44:57.932Z,100798.97
2022-10-19T07:47:27.078Z,100803.75
2022-10-19T07:49:54.766Z,100809.94
2022-10-19T07:52:22.463Z,100808.00
2022-10-19T07:54:50.091Z,100799.84
2022-10-19T07:57:17.871Z,100802.31
2022-10-19T07:59:45.513Z,100799.38
2022-10-19T08:02:16.750Z,100805.81
2022-10-19T08:05:00.405Z,100815.38
2022-10-19T08:07:29.734Z,100818.22
2022-10-19T08:09:57.421Z,100816.66
2022-10-19T08:12:25.107Z,100821.47
2022-10-19T08:14:54.317Z,100821.16
2022-10-19T08:17:21.934Z,100821.63
2022-10-19T08:19:50.909Z,100822.47
2022-10-19T08:22:18.538Z,100821.25
2022-10-19T08:24:46.215Z,100810.97
2022-10-19T08:27:14.745Z,100815.31
2022-10-19T08:29:42.414Z,100818.88
2022-10-19T08:32:10.267Z,100808.13
2022-10-19T08:34:38.048Z,100729.63
2022-10-19T08:37:19.703Z,100803.72
2022-10-19T08:39:54.642Z,100805.72
2022-10-19T08:42:25.863Z,100802.94
2022-10-19T08:45:16.331Z,100791.44
2022-10-19T08:47:59.062Z,100792.59
2022-10-19T08:50:29.438Z,100793.38
2022-10-19T08:53:02.838Z,100794.09
2022-10-19T08:55:40.979Z,100754.78
2022-10-19T08:58:22.309Z,100795.41
2022-10-19T09:00:59.671Z,100800.81
2022-10-19T09:03:54.981Z,100788.16
2022-10-19T09:06:28.190Z,100791.09
2022-10-19T09:08:58.568Z,100794.38
2022-10-19T09:11:29.588Z,100791.53
2022-10-19T09:14:05.697Z,100789.00
2022-10-19T09:16:34.736Z,100781.72
2022-10-19T09:19:02.686Z,100792.78
2022-10-19T09:21:45.915Z,100794.72
2022-10-19T09:24:28.595Z,100791.91
2022-10-19T09:26:59.720Z,100779.22
2022-10-19T09:29:38.109Z,100779.09
2022-10-19T09:32:13.101Z,100795.34
2022-10-19T09:34:45.523Z,100802.75
2022-10-19T09:37:20.165Z,100799.63
2022-10-19T09:39:55.019Z,100796.66
2022-10-19T09:42:28.997Z,100785.34
2022-10-19T09:44:59.090Z,100788.88
2022-10-19T09:47:35.777Z,100786.94
2022-10-19T09:50:14.806Z,100787.31
2022-10-19T09:52:44.952Z,100788.72
2022-10-19T09:55:27.051Z,100783.59
2022-10-19T09:58:01.870Z,100785.09
2022-10-19T10:00:39.493Z,100785.22
2022-10-19T10:03:07.603Z,100777.94
2022-10-19T10:05:37.777Z,100747.78
2022-10-19T10:08:13.614Z,100778.53
2022-10-19T10:10:46.777Z,100767.84
2022-10-19T10:13:18.821Z,100702.84
2022-10-19T10:15:49.825Z,100774.19
2022-10-19T10:18:19.669Z,100773.44
2022-10-19T10:21:00.555Z,100779.84
2022-10-19T10:23:31.533Z,100776.44
2022-10-19T10:26:01.588Z,100775.53
2022-10-19T10:28:30.781Z,100774.19
2022-10-19T10:31:03.636Z,100741.03
2022-10-19T10:33:44.201Z,100779.25
2022-10-19T10:36:13.481Z,100777.56
2022-10-19T10:38:46.474Z,100759.47
2022-10-19T10:41:18.114Z,100782.47
2022-10-19T10:43:57.504Z,100776.00
2022-10-19T10:46:30.033Z,100773.53
2022-10-19T10:49:00.099Z,100768.84
2022-10-19T10:51:34.429Z,100757.06
2022-10-19T10:54:16.740Z,100761.78
2022-10-19T10:57:01.852Z,100752.28
2022-10-19T10:59:41.678Z,100749.53
2022-10-19T11:04:59.882Z,100747.25
2022-10-19T11:07:30.115Z,100739.53
2022-10-19T11:09:59.623Z,100706.53
2022-10-19T11:12:36.981Z,100731.56
2022-10-19T11:15:13.662Z,100725.72
2022-10-19T11:17:55.463Z,100733.47
2022-10-19T11:20:25.766Z,100729.06
2022-10-19T11:22:58.827Z,100729.16
2022-10-19T11:25:37.477Z,100722.50
2022-10-19T11:28:20.431Z,100705.25
2022-10-19T11:30:56.898Z,100708.53
2022-10-19T11:33:39.160Z,100699.59
2022-10-19T11:36:17.365Z,100694.81
2022-10-19T11:38:53.921Z,100694.25
2022-10-19T11:41:31.633Z,100670.06
2022-10-19T11:44:21.051Z,100680.75
2022-10-19T11:46:58.238Z,100674.00
2022-10-19T11:49:41.445Z,100679.59
2022-10-19T11:52:16.906Z,100677.63
2022-10-19T11:54:59.212Z,100667.69
2022-10-19T11:57:32.261Z,100661.94
2022-10-19T12:00:15.460Z,100665.53
2022-10-19T12:03:19.457Z,100667.19
2022-10-19T12:05:57.174Z,100661.78
2022-10-19T12:08:38.292Z,100651.31
2022-10-19T12:11:19.038Z,100646.56
2022-10-19T12:13:51.992Z,100641.16
2022-10-19T12:16:26.258Z,100632.47
2022-10-19T12:19:00.339Z,100641.53
2022-10-19T12:21:31.523Z,100636.69
2022-10-19T12:24:02.800Z,100646.19
2022-10-19T12:26:35.006Z,100636.88
2022-10-19T12:29:06.449Z,100640.81
2022-10-19T12:31:36.957Z,100635.41
2022-10-19T12:34:10.922Z,100639.50
2022-10-19T12:36:44.302Z,100632.63
2022-10-19T12:39:18.565Z,100633.88
2022-10-19T12:41:53.073Z,100646.34
2022-10-19T12:44:58.753Z,100636.88
2022-10-19T12:47:28.007Z,100637.09
2022-10-19T12:49:58.918Z,100617.03
2022-10-19T12:52:44.283Z,100629.16
2022-10-19T12:55:27.752Z,100625.00
2022-10-19T12:58:02.373Z,100625.88
2022-10-19T13:00:32.700Z,100621.44
2022-10-19T13:03:05.750Z,100625.34
2022-10-19T13:05:35.532Z,100617.19
2022-10-19T13:08:08.001Z,100612.06
2022-10-19T13:10:38.604Z,100608.97
2022-10-19T13:13:06.584Z,100605.94
2022-10-19T13:15:55.124Z,100600.13
2022-10-19T13:19:06.054Z,100596.53
2022-10-19T13:21:53.097Z,100586.81
2022-10-19T13:24:29.054Z,100572.13
2022-10-19T13:27:26.142Z,100574.94
2022-10-19T13:29:53.811Z,100573.41
2022-10-19T13:32:33.385Z,100570.81
2022-10-19T13:35:31.399Z,100561.88
2022-10-19T13:38:24.097Z,100523.41
2022-10-19T13:41:02.199Z,100557.56
2022-10-19T13:43:32.975Z,100563.47
2022-10-19T13:46:07.057Z,100555.91
2022-10-19T13:48:46.856Z,100555.53
2022-10-19T13:51:21.654Z,100550.34
2022-10-19T13:54:01.224Z,100549.47
2022-10-19T13:57:00.638Z,100545.81
2022-10-19T14:00:12.858Z,100554.53
2022-10-19T14:02:56.866Z,100546.75
2022-10-19T14:05:44.870Z,100551.63
2022-10-19T14:08:31.102Z,100553.75
2022-10-19T14:11:04.152Z,100548.09
2022-10-19T14:13:32.678Z,100556.91
2022-10-19T14:16:02.842Z,100549.19
2022-10-19T14:18:33.422Z,100552.09
2022-10-19T14:21:02.951Z,100559.25
2022-10-19T14:23:33.092Z,100552.06
2022-10-19T14:26:05.375Z,100554.53
2022-10-19T14:28:34.410Z,100547.38
2022-10-19T14:31:04.246Z,100540.69
2022-10-19T14:33:35.449Z,100539.84
2022-10-19T14:36:03.542Z,100541.00
2022-10-19T14:38:35.248Z,100531.88
2022-10-19T14:41:05.528Z,100524.75
2022-10-19T14:43:35.236Z,100520.94
2022-10-19T14:46:11.864Z,100520.63
2022-10-19T14:48:40.932Z,100522.97
2022-10-19T14:51:17.438Z,100513.09
2022-10-19T14:53:48.493Z,100519.81
2022-10-19T14:56:22.500Z,100512.66
2022-10-19T14:58:54.535Z,100507.53
2022-10-19T15:01:22.765Z,100503.69
2022-10-19T15:03:51.362Z,100514.41
2022-10-19T15:06:23.691Z,100507.69
2022-10-19T15:11:31.127Z,100514.88
2022-10-19T15:14:03.602Z,100507.34
2022-10-19T15:16:34.805Z,100508.94
2022-10-19T15:19:07.082Z,100500.22
2022-10-19T15:21:34.743Z,100495.09
2022-10-19T15:24:16.611Z,100493.53
2022-10-19T15:27:06.589Z,100482.81
2022-10-19T15:29:36.622Z,100496.69
2022-10-19T15:32:15.390Z,100483.59
2022-10-19T15:34:44.945Z,100487.94
2022-10-19T15:37:19.712Z,100479.66
2022-10-19T15:39:48.528Z,100478.81
2022-10-19T15:42:37.389Z,100438.50
2022-10-19T15:45:06.117Z,100474.91
2022-10-19T15:47:34.596Z,100478.06
2022-10-19T15:50:03.856Z,100482.03
2022-10-19T15:52:34.187Z,100482.44
2022-10-19T15:55:02.925Z,100470.19
2022-10-19T15:57:34.463Z,100465.44
2022-10-19T16:00:07.798Z,100462.28
2022-10-19T16:02:35.506Z,100451.59
2022-10-19T16:05:03.219Z,100445.66
2022-10-19T16:07:33.270Z,100443.69
2022-10-19T16:10:01.252Z,100434.16
2022-10-19T16:12:28.890Z,100434.56
2022-10-19T16:14:57.867Z,100425.00
2022-10-19T16:17:25.660Z,100427.75
2022-10-19T16:19:53.285Z,100427.81
2022-10-19T16:22:21.271Z,100423.41
2022-10-19T16:24:48.982Z,100414.69
2022-10-19T16:27:16.958Z,100422.97
2022-10-19T16:29:45.238Z,100421.78
2022-10-19T16:32:14.397Z,100429.28
2022-10-19T16:34:42.231Z,100438.34
2022-10-19T16:37:09.822Z,100432.03
2022-10-19T16:39:37.459Z,100444.22
2022-10-19T16:42:05.244Z,100433.56
2022-10-19T16:44:33.026Z,100426.44
2022-10-19T16:47:00.721Z,100426.44
2022-10-19T16:49:29.880Z,100427.56
2022-10-19T16:51:57.872Z,100429.94
2022-10-19T16:54:26.438Z,100432.72
2022-10-19T16:56:55.453Z,100438.66
2022-10-19T16:59:23.521Z,100433.06
2022-10-19T17:01:51.468Z,100428.38
2022-10-19T17:04:19.209Z,100433.47
2022-10-19T17:06:48.465Z,100389.88
2022-10-19T17:12:04.111Z,100441.72
2022-10-19T17:14:31.891Z,100434.59
2022-10-19T17:16:59.717Z,100431.03
2022-10-19T17:19:27.368Z,100429.06
2022-10-19T17:21:57.574Z,100431.38
2022-10-19T17:24:25.627Z,100430.16
2022-10-19T17:26:54.019Z,100426.59
2022-10-19T17:29:23.288Z,100424.63
2022-10-19T17:31:51.529Z,100424.22
2022-10-19T17:34:19.400Z,100421.50
2022-10-19T17:36:47.295Z,100425.78
2022-10-19T17:39:18.614Z,100423.81
2022-10-19T17:41:46.800Z,100435.66
2022-10-19T17:44:14.903Z,100441.94
2022-10-19T17:46:42.678Z,100439.66
2022-10-19T17:49:11.086Z,100442.06
2022-10-19T17:51:39.638Z,100431.38
2022-10-19T17:54:09.385Z,100427.34
2022-10-19T17:56:39.099Z,100422.22
2022-10-19T17:59:07.934Z,100433.22
2022-10-19T18:01:36.995Z,100422.59
2022-10-19T18:04:05.720Z,100418.97
2022-10-19T18:06:35.656Z,100431.91
2022-10-19T18:09:05.827Z,100429.56
2022-10-19T18:11:36.932Z,100433.22
2022-10-19T18:14:07.830Z,100443.84
2022-10-19T18:16:37.792Z,100441.94
2022-10-19T18:19:07.154Z,100423.22
2022-10-19T18:21:38.360Z,100445.03
2022-10-19T18:24:09.062Z,100441.94
2022-10-19T18:26:40.049Z,100434.38
2022-10-19T18:29:13.460Z,100444.69
2022-10-19T18:31:41.281Z,100441.06
2022-10-19T18:34:14.384Z,100430.78
2022-10-19T18:36:42.786Z,100436.22
2022-10-19T18:39:11.463Z,100429.06
2022-10-19T18:41:40.390Z,100423.47
2022-10-19T18:44:09.731Z,100407.69
2022-10-19T18:46:38.753Z,100417.09
2022-10-19T18:49:09.112Z,100406.81
2022-10-19T18:51:37.438Z,100406.97
2022-10-19T18:54:05.558Z,100398.69
2022-10-19T18:56:36.311Z,100393.56
2022-10-19T18:59:04.338Z,100405.47
2022-10-19T19:01:32.268Z,100407.13
2022-10-19T19:04:07.628Z,100381.78
2022-10-19T19:06:36.231Z,100402.75
2022-10-19T19:09:06.693Z,100395.56
2022-10-19T19:11:37.382Z,100394.69
2022-10-19T19:14:07.609Z,100402.25
2022-10-19T19:16:37.847Z,100406.94
2022-10-19T19:19:07.671Z,100387.00
2022-10-19T19:21:36.567Z,100399.44
2022-10-19T19:24:06.695Z,100398.91
2022-10-19T19:26:36.386Z,100394.16
2022-10-19T19:29:04.852Z,100384.81
2022-10-19T19:31:32.742Z,100385.97
2022-10-19T19:34:01.773Z,100384.81
2022-10-19T19:36:30.856Z,100390.75
2022-10-19T19:38:59.129Z,100400.59
2022-10-19T19:41:28.736Z,100392.28
2022-10-19T19:43:57.496Z,100389.50
2022-10-19T19:46:25.328Z,100385.56
2022-10-19T19:49:00.045Z,100368.13
2022-10-19T19:51:28.547Z,100368.91
2022-10-19T19:53:58.128Z,100363.88
2022-10-19T19:56:26.289Z,100362.31
2022-10-19T19:58:56.776Z,100362.34
2022-10-19T20:01:24.575Z,100360.41
2022-10-19T20:04:11.704Z,100330.34
2022-10-19T20:06:57.720Z,100344.34
2022-10-19T20:09:47.032Z,100354.97
2022-10-19T20:12:34.939Z,100354.19
2022-10-19T20:15:22.937Z,100350.63
2022-10-19T20:18:10.873Z,100347.38
2022-10-19T20:21:02.069Z,100330.03
2022-10-19T20:23:50.716Z,100345.50
2022-10-19T20:26:40.167Z,100339.50
2022-10-19T20:29:28.106Z,100335.19
2022-10-19T20:32:15.999Z,100333.25
2022-10-19T20:35:04.614Z,100340.81
2022-10-19T20:37:52.582Z,100340.03
2022-10-19T20:40:41.456Z,100347.91
2022-10-19T20:43:30.774Z,100344.75
2022-10-19T20:46:22.112Z,100341.13
2022-10-19T20:49:12.573Z,100343.91
2022-10-19T20:52:00.519Z,100344.69
2022-10-19T20:54:49.044Z,100333.53
2022-10-19T20:57:36.948Z,100339.56
2022-10-19T21:00:26.309Z,100337.56
2022-10-19T21:03:14.267Z,100341.97
2022-10-19T21:06:06.564Z,100332.75
2022-10-19T21:08:54.888Z,100332.81
2022-10-19T21:11:44.236Z,100339.16
2022-10-19T21:14:32.178Z,100343.88
2022-10-19T21:17:21.509Z,100352.47
2022-10-19T21:20:10.205Z,100349.31
2022-10-19T21:22:59.056Z,100350.06
2022-10-19T21:25:58.080Z,100343.28
2022-10-19T21:28:50.662Z,100346.84
2022-10-19T21:31:39.758Z,100346.06
2022-10-19T21:34:30.855Z,100338.19
2022-10-19T21:37:18.778Z,100340.94
2022-10-19T21:40:07.707Z,100329.91
2022-10-19T21:42:55.617Z,100329.94
2022-10-19T21:45:43.505Z,100333.00
2022-10-19T21:48:32.483Z,100329.53
2022-10-19T21:51:29.076Z,100326.31
2022-10-19T21:54:19.424Z,100314.50
2022-10-19T21:57:07.290Z,100318.06
2022-10-19T21:59:55.161Z,100309.44
2022-10-19T22:02:42.996Z,100304.31
2022-10-19T22:05:30.875Z,100306.28
2022-10-19T22:08:20.191Z,100294.78
2022-10-19T22:11:10.109Z,100298.00
2022-10-19T22:13:59.703Z,100293.28
2022-10-19T22:16:47.610Z,100237.78
2022-10-19T22:19:35.564Z,100288.91
2022-10-19T22:22:23.610Z,100277.06
2022-10-19T22:25:12.815Z,100267.97
2022-10-19T22:28:00.873Z,100277.09
2022-10-19T22:30:53.783Z,100270.78
2022-10-19T22:33:42.210Z,100273.97
2022-10-19T22:36:30.342Z,100268.84
2022-10-19T22:39:18.664Z,100253.00
2022-10-19T22:42:07.875Z,100254.50
2022-10-19T22:44:55.740Z,100253.81
2022-10-19T22:47:43.579Z,100257.00
2022-10-19T22:50:31.451Z,100253.06
2022-10-19T22:53:19.293Z,100249.13
2022-10-19T22:56:08.579Z,100248.28
2022-10-19T22:59:00.783Z,100228.47
2022-10-19T23:01:48.701Z,100232.91
2022-10-19T23:04:36.652Z,100224.59
2022-10-19T23:07:24.632Z,100213.13
2022-10-19T23:10:12.601Z,100203.28
2022-10-19T23:13:00.468Z,100211.53
2022-10-19T23:15:51.761Z,100203.69
2022-10-19T23:18:41.656Z,100207.66
2022-10-19T23:21:29.568Z,100202.16
2022-10-19T23:24:17.517Z,100191.84
2022-10-19T23:27:05.836Z,100196.56
2022-10-19T23:29:53.760Z,100193.03
2022-10-19T23:32:43.012Z,100177.25
2022-10-19T23:35:30.921Z,100173.66
2022-10-19T23:38:19.057Z,100195.38
2022-10-19T23:41:07.590Z,100187.13
2022-10-19T23:43:55.522Z,100186.69
2022-10-19T23:46:43.421Z,100181.91
2022-10-19T23:49:33.029Z,100167.00
2022-10-19T23:52:20.933Z,100165.75
2022-10-19T23:55:10.005Z,100165.75
2022-10-19T23:57:57.941Z,100158.63
